Estació municipal de Les Masies de Roda (Osona, Ter)

Consulta les dades en temps real de l'estació municipal de Les Masies de Roda





Hora UTC 18:50
Temperatura 29.5 ºC
Sòl 15 cm 26.0 ºC
Humitat 52.0 %
Pressió 1020.1 hPa
Pluja 0.0 mm
Velocitat vent 2.9 km/h
Direcció vent SE
Radiació solar 52.7 W/m²

Dades diàries 2026-09-04



Hora UTC (hivern +1h; estiu +2h)
Temperatura (ºC) Humitat (%) Pressió (hPa) Velocitat vent (km/h) Precipitació (mm) Radiació solar (W/m²)
Hora UTC Aire Sòl 15 cm Humitat Pressió Vel. Dir. Vel. Max Dir. Intent. màx 5 min. Rad. Sol.
00:05 19.8 17.7 87.5 1022.6 0.0 NNE 0.0 NE 0.0 10.6
00:10 19.7 17.5 90.5 1022.4 2.0 ENE 3.5 E 0.0 13.0
00:15 19.8 17.5 90.5 1022.5 0.3 NE 1.8 NE 0.0 13.1
00:20 19.7 17.5 89.6 1022.4 0.3 NW 2.8 NW 0.0 12.1
00:25 19.6 17.4 91.1 1022.5 0.0 NNE 0.0 NW 0.0 12.8
00:30 19.6 17.4 91.3 1022.4 0.0 NNE 0.0 NW 0.0 12.1
00:35 19.6 17.3 92.0 1022.4 0.0 NNE 0.0 NW 0.0 10.9
00:40 19.5 17.3 92.1 1022.3 0.0 NNE 0.0 N 0.0 12.6
00:45 19.5 17.3 91.6 1022.3 0.0 NNE 0.0 N 0.0 12.3
00:50 19.4 17.2 91.7 1022.3 0.0 NNE 0.0 N 0.0 13.1
00:55 19.4 17.2 92.4 1022.2 0.0 NNE 0.0 N 0.0 12.4
01:00 19.4 17.2 92.8 1022.3 0.1 N 2.1 N 0.0 12.9
01:05 19.4 17.3 91.8 1022.0 1.0 N 2.5 N 0.0 11.9
01:10 19.3 17.2 91.8 1022.1 0.0 NNE 0.0 NNW 0.0 12.2
01:15 19.1 17.0 92.1 1022.0 1.4 NNE 2.5 NNE 0.0 11.9
01:20 19.2 16.9 92.4 1022.1 0.1 NNE 1.8 NNE 0.0 11.7
01:25 18.9 16.8 91.9 1022.0 1.3 NNW 3.2 NW 0.0 9.9
01:30 18.7 16.7 92.5 1022.1 0.7 NW 3.2 NW 0.0 9.4
01:35 18.7 16.6 93.4 1022.0 0.0 NNE 0.0 NW 0.0 12.2
01:40 18.7 16.6 93.7 1022.0 1.0 S 2.8 S 0.0 11.5
01:45 18.7 16.6 94.3 1022.0 0.7 WSW 2.5 WSW 0.0 10.4
01:50 18.6 16.6 94.4 1021.9 0.0 NNE 0.0 WSW 0.0 10.6
01:55 18.6 16.6 94.0 1022.0 0.0 NNE 0.0 WSW 0.0 11.4
02:00 18.4 16.5 94.0 1021.8 0.0 NNE 0.0 WSW 0.0 9.2
02:05 18.5 16.4 94.3 1022.0 0.0 NNE 0.0 WSW 0.0 8.6
02:10 18.4 16.3 93.8 1021.7 0.0 NNE 0.0 WSW 0.0 9.4
02:15 18.4 16.3 94.2 1021.9 0.0 NNE 0.0 WSW 0.0 8.7
02:20 18.6 16.4 93.7 1021.7 0.0 NNE 0.0 WSW 0.0 8.2
02:25 18.3 16.4 93.3 1021.9 1.7 NW 3.2 NW 0.0 8.4
02:30 18.2 16.3 93.5 1021.8 0.1 NW 1.4 NW 0.0 7.0
02:35 18.3 16.1 94.5 1021.8 0.0 NNE 0.0 NW 0.0 8.2
02:40 18.2 16.1 93.6 1021.8 0.0 NNE 0.0 NW 0.0 9.1
02:45 18.1 16.0 93.7 1021.7 0.0 NNE 0.0 NW 0.0 7.2
02:50 18.0 15.9 93.8 1021.8 0.0 NNE 0.0 NW 0.0 7.9
02:55 18.0 15.8 93.8 1021.7 0.0 NNE 0.0 NW 0.0 6.4
03:00 17.8 15.7 93.2 1021.8 0.0 NNE 0.0 NW 0.0 5.6
03:05 17.7 15.7 94.0 1021.7 0.2 NW 2.1 NW 0.0 7.4
03:10 17.7 15.6 94.6 1021.8 0.0 NNE 0.0 NW 0.0 208.9
03:15 17.7 15.5 94.7 1021.6 0.0 NNE 0.0 NW 0.0 180.1
03:20 17.7 15.5 94.7 1021.7 0.0 NNE 0.0 NW 0.0 202.4
03:25 17.7 15.5 94.8 1021.6 0.0 NNE 0.0 NW 0.0 209.2
03:30 17.6 15.5 94.8 1021.7 0.0 NNE 0.0 NW 0.0 185.5
03:35 17.5 15.4 95.3 1021.5 0.0 NNE 0.0 NW 0.0 286.5
03:40 17.6 15.4 95.5 1021.6 0.0 NNE 0.0 NW 0.0 246.5
03:45 17.6 15.5 95.1 1021.5 0.0 NNE 0.0 NW 0.0 174.0
03:50 17.4 15.5 95.0 1021.5 0.5 NE 2.5 NE 0.0 159.5
03:55 17.3 15.4 94.8 1021.4 0.0 NNE 0.0 NE 0.0 275.6
04:00 17.2 15.2 95.1 1021.4 0.0 NNE 0.0 NE 0.0 330.3
04:05 17.2 15.2 95.0 1021.3 0.5 WNW 3.2 WNW 0.0 221.2
04:10 17.0 15.1 95.1 1021.4 2.1 WNW 3.5 NW 0.0 191.3
04:15 17.0 15.0 95.6 1021.3 0.5 WSW 2.5 WSW 0.0 319.3
04:20 17.1 15.0 96.2 1021.3 0.0 NNE 0.0 NW 0.0 313.7
04:25 17.3 15.1 96.2 1021.4 0.3 NNE 2.5 NNE 0.0 333.3
04:30 17.2 15.2 95.8 1021.3 0.0 NNE 0.0 NNE 0.0 317.6
04:35 17.0 15.1 95.7 1021.4 0.0 NNE 0.0 NNE 0.0 335.7
04:40 17.1 15.0 96.1 1021.3 0.0 NNE 0.0 NNE 0.0 336.8
04:45 17.1 15.0 96.1 1021.4 0.0 NNE 0.0 NNE 0.0 323.3
04:50 17.0 15.0 95.8 1021.2 1.1 N 2.5 N 0.0 266.7
04:55 17.0 14.9 96.1 1021.3 1.1 NE 2.1 NE 0.0 263.7
05:00 17.2 14.9 96.4 1021.1 0.5 NE 2.5 NE 0.0 265.9
05:05 17.1 14.9 95.8 1021.3 0.6 NW 2.5 NW 0.0 271.6
05:10 16.7 14.9 95.6 1021.2 0.2 NW 2.1 NW 0.0 280.4
05:15 16.7 14.7 95.9 1021.3 2.3 NW 3.2 NNW 0.0 306.6
05:20 16.7 14.7 96.2 1021.2 0.7 NNW 3.2 NNW 0.0 274.3
05:25 16.8 14.6 96.2 1021.2 0.0 NNE 0.0 NNW 0.0 279.1
05:30 16.7 14.6 96.3 1021.1 0.0 NNE 0.0 NNW 0.0 275.6
05:35 16.8 14.7 96.5 1021.1 0.3 WNW 3.5 WNW 0.0 303.0
05:40 16.6 14.7 95.8 1021.1 2.6 WNW 3.2 WNW 0.0 290.1
05:45 16.3 14.6 95.9 1021.1 0.2 NW 2.1 NW 0.0 287.4
05:50 16.4 14.6 96.2 1021.2 0.0 NNE 0.0 NW 0.0 287.9
05:55 16.5 14.7 96.5 1021.2 0.0 NNE 0.0 NW 0.0 289.6
06:00 17.0 14.9 96.9 1021.3 0.0 NNE 0.0 NW 0.0 295.0
06:05 17.3 15.2 96.7 1021.2 0.0 NNE 0.0 NW 0.0 306.9
06:10 17.4 15.7 96.3 1021.3 0.0 NNE 0.0 NW 0.0 286.5
06:15 17.7 16.1 96.0 1021.3 0.0 NNE 0.0 NW 0.0 308.4
06:20 18.0 16.5 94.4 1021.4 0.7 NW 2.8 NW 0.0 270.1
06:25 18.1 16.9 93.5 1021.3 0.0 NNE 0.0 NW 0.0 184.5
06:30 18.3 17.4 93.5 1021.4 0.0 NNE 0.0 NW 0.0 13.7
06:35 18.6 17.8 93.2 1021.2 0.0 NNE 0.0 NW 0.0 20.9
06:40 19.0 18.2 91.9 1021.4 0.7 W 2.8 W 0.0 25.5
06:45 19.4 18.6 88.8 1021.3 0.0 NNE 0.0 W 0.0 29.4
06:50 19.9 18.9 87.0 1021.4 2.8 W 4.6 W 0.0 30.5
06:55 20.1 19.3 85.3 1021.4 2.0 W 3.9 WNW 0.0 33.3
07:00 20.1 19.4 84.4 1021.2 1.4 WNW 3.5 WNW 0.0 35.6
07:05 20.3 19.7 84.7 1021.4 1.4 W 3.9 W 0.0 38.5
07:10 20.6 20.1 84.0 1021.2 1.6 W 3.2 WNW 0.0 42.3
07:15 20.9 20.5 81.9 1021.4 1.9 W 4.2 W 0.0 41.4
07:20 21.2 21.0 80.8 1021.2 2.8 WSW 4.2 SSW 0.0 46.4
07:25 21.4 21.4 78.3 1021.2 1.6 SSE 3.9 SSE 0.0 50.8
07:30 21.8 21.9 77.6 1021.3 2.3 SSE 3.5 SSE 0.0 50.6
07:35 22.0 22.4 77.0 1021.1 2.6 S 3.9 S 0.0 54.7
07:40 22.1 22.9 75.6 1021.3 1.8 SE 2.8 ESE 0.0 47.5
07:45 22.6 23.6 75.0 1021.1 2.3 SSW 4.6 ENE 0.0 56.5
07:50 22.6 24.3 73.0 1021.3 2.4 ENE 5.0 ENE 0.0 55.7
07:55 23.1 24.8 71.8 1021.1 0.7 E 3.5 S 0.0 59.9
08:00 23.4 25.4 70.4 1021.2 2.4 ESE 5.7 SE 0.0 61.1
08:05 23.6 26.0 69.8 1021.2 1.4 SSW 6.0 SSW 0.0 57.0
08:10 24.0 26.6 69.7 1021.0 3.8 WSW 6.0 SSW 0.0 63.3
08:15 23.7 27.1 71.2 1021.2 3.3 WSW 5.7 SSW 0.0 69.8
08:20 24.2 27.6 69.6 1021.0 1.4 SSW 5.7 SSW 0.0 54.9
08:25 24.8 28.3 68.5 1021.0 2.9 WSW 5.3 WSW 0.0 70.6
08:30 24.7 28.8 67.4 1021.2 1.3 SSE 3.5 S 0.0 74.9
08:35 24.8 29.1 67.4 1021.0 2.8 SSE 6.0 S 0.0 79.7
08:40 24.8 29.3 67.8 1021.2 2.8 SSE 5.0 SSE 0.0 82.9
08:45 25.1 29.6 66.6 1021.0 0.7 SSE 3.5 SSE 0.0 82.0
08:50 25.6 30.1 66.5 1021.0 1.8 W 4.2 W 0.0 78.2
08:55 25.9 30.6 66.3 1021.2 3.4 WSW 6.4 SW 0.0 89.4
09:00 26.1 31.2 64.5 1021.1 1.0 W 3.5 NW 0.0 99.5
09:05 26.3 31.6 64.7 1021.0 2.9 SW 5.0 SSW 0.0 92.3
09:10 26.8 32.2 61.0 1021.2 3.2 SE 5.0 SE 0.0 76.7
09:15 26.8 32.7 60.2 1021.1 1.8 ENE 3.5 ENE 0.0 80.1
09:20 27.2 33.2 59.5 1020.9 1.8 NNE 4.2 N 0.0 93.0
09:25 27.1 33.3 59.8 1021.1 0.3 NW 2.8 N 0.0 100.0
09:30 27.7 33.8 60.3 1021.2 3.2 SW 5.7 WSW 0.0 111.0
09:35 28.7 34.7 56.7 1021.0 3.5 WSW 6.7 SSW 0.0 580.9
09:40 29.1 35.5 53.6 1020.8 1.4 SE 3.9 NE 0.0 613.6
09:45 29.8 36.2 52.9 1020.9 2.2 SW 5.7 SW 0.0 635.3
09:50 29.8 36.6 50.9 1021.0 4.2 E 7.1 E 0.0 630.1
09:55 29.6 36.6 51.1 1020.9 3.9 ENE 8.1 E 0.0 643.6
10:00 30.3 36.9 48.9 1020.6 0.9 E 3.5 N 0.0 664.4
10:05 30.8 37.4 46.3 1020.6 2.3 SSE 4.6 S 0.0 682.7
10:10 31.3 37.8 43.8 1020.6 3.6 SSE 6.0 ESE 0.0 690.8
10:15 31.4 38.0 40.5 1020.8 3.3 NE 7.4 E 0.0 698.0
10:20 31.2 38.2 41.2 1020.7 4.8 NE 7.8 NNE 0.0 707.4
10:25 31.1 38.4 40.6 1020.6 6.1 NE 9.2 NE 0.0 715.8
10:30 31.3 38.7 41.2 1020.4 1.4 NE 5.0 ENE 0.0 720.6
10:35 31.9 39.1 41.4 1020.4 2.6 W 7.1 WNW 0.0 713.2
10:40 32.5 39.7 38.5 1020.5 1.7 N 5.0 E 0.0 664.7
10:45 32.5 40.4 36.8 1020.6 4.5 E 7.8 E 0.0 603.7
10:50 32.4 40.5 37.0 1020.5 3.2 NNE 7.4 N 0.0 672.9
10:55 32.3 40.3 36.9 1020.4 4.7 N 7.1 N 0.0 702.3
11:00 32.5 39.9 36.6 1020.2 3.1 NNW 6.7 N 0.0 708.4
11:05 33.4 40.3 38.4 1020.1 2.5 SW 9.2 SE 0.0 703.6
11:10 34.0 41.1 34.2 1020.0 3.9 SE 8.8 SSE 0.0 715.0
11:15 33.3 41.2 35.3 1019.9 3.2 SSW 10.3 SSE 0.0 728.3
11:20 33.6 41.2 35.1 1019.9 3.7 SSE 9.5 S 0.0 739.4
11:25 33.6 41.4 34.1 1020.0 5.0 SE 9.2 SE 0.0 750.3
11:30 33.8 41.6 35.2 1020.0 6.0 SSW 10.6 SSW 0.0 748.2
11:35 34.6 42.1 32.9 1020.0 4.1 SW 10.3 SW 0.0 758.6
11:40 34.2 42.4 32.5 1020.1 2.3 ENE 7.1 E 0.0 753.3
11:45 34.2 42.9 32.1 1020.0 3.0 ENE 7.8 NNE 0.0 754.0
11:50 34.8 43.3 32.9 1019.9 4.2 WSW 12.0 WSW 0.0 743.9
11:55 35.2 43.5 32.7 1019.8 5.7 WSW 15.5 SW 0.0 741.6
12:00 35.5 43.9 32.0 1019.8 6.4 SW 10.3 W 0.0 727.0
12:05 35.4 44.2 31.9 1019.7 5.8 WSW 13.4 W 0.0 718.7
12:10 35.5 44.4 31.6 1019.6 6.5 SSW 11.7 WSW 0.0 717.5
12:15 35.5 44.4 30.2 1019.6 2.2 S 8.8 S 0.0 711.3
12:20 35.5 44.4 28.9 1019.5 5.7 SSE 12.4 SE 0.0 714.2
12:25 36.0 44.6 28.8 1019.4 6.6 SW 10.6 SW 0.0 699.9
12:30 35.4 44.9 26.4 1019.3 7.4 ENE 12.7 ENE 0.0 697.7
12:35 35.6 44.5 28.0 1019.2 7.9 ENE 13.8 ENE 0.0 698.6
12:40 35.5 44.0 26.8 1019.2 6.7 ESE 11.7 E 0.0 695.7
12:45 35.7 43.7 26.4 1019.2 3.8 E 8.1 NNE 0.0 703.6
12:50 35.7 43.8 25.6 1019.2 3.2 E 9.9 ESE 0.0 690.1
12:55 35.9 44.2 25.5 1019.1 5.4 E 11.7 ESE 0.0 690.0
13:00 36.1 44.4 26.6 1019.1 5.5 S 10.6 S 0.0 694.5
13:05 36.4 44.6 25.7 1019.1 6.9 SE 11.0 SE 0.0 688.0
13:10 36.0 44.2 26.4 1019.0 5.6 ESE 11.0 SE 0.0 692.6
13:15 36.6 44.4 25.9 1019.1 5.3 SSE 11.3 S 0.0 684.8
13:20 36.3 44.5 25.6 1019.1 3.0 NE 8.5 ENE 0.0 673.5
13:25 36.3 44.7 25.2 1019.0 2.7 E 9.2 ESE 0.0 665.3
13:30 36.5 45.1 24.9 1019.0 6.0 E 12.0 ENE 0.0 653.7
13:35 36.5 44.9 25.0 1018.9 3.3 SSE 8.5 SSE 0.0 668.7
13:40 36.5 44.7 24.8 1018.9 7.3 NE 12.0 ENE 0.0 656.1
13:45 36.9 44.7 23.9 1018.9 8.6 NE 16.2 ENE 0.0 640.2
13:50 36.4 44.2 24.6 1018.8 7.3 NE 11.7 NE 0.0 564.1
13:55 36.6 44.0 24.7 1018.9 5.1 NE 9.5 ENE 0.0 617.1
14:00 37.0 44.0 26.1 1018.9 7.3 WNW 10.6 W 0.0 612.9
14:05 38.1 44.6 24.9 1018.9 3.8 WSW 8.5 W 0.0 604.8
14:10 38.2 45.4 23.0 1018.8 4.8 E 11.0 ENE 0.0 590.8
14:15 36.7 45.3 23.5 1018.8 4.1 ESE 10.6 E 0.0 585.6
14:20 37.2 44.9 24.9 1018.7 3.4 SSE 8.8 SSE 0.0 582.0
14:25 37.3 44.7 23.2 1018.6 6.6 NE 13.4 NNE 0.0 464.7
14:30 37.0 44.0 23.7 1018.6 5.4 NNW 8.8 N 0.0 68.0
14:35 37.4 43.8 25.4 1018.5 5.9 NW 11.7 NW 0.0 62.0
14:40 37.2 44.0 22.5 1018.5 3.1 NNW 9.9 NNE 0.0 63.5
14:45 37.1 44.1 23.1 1018.5 3.7 NNE 11.0 NNW 0.0 61.0
14:50 37.3 43.8 22.9 1018.5 3.7 SE 9.2 SE 0.0 61.8
14:55 37.3 43.6 22.7 1018.5 5.5 SE 11.0 S 0.0 61.7
15:00 37.0 43.3 23.0 1018.5 7.0 SE 12.0 SSE 0.0 61.6
15:05 37.1 42.9 26.2 1018.5 9.3 ESE 21.5 ESE 0.0 60.5
15:10 36.7 42.3 28.5 1018.5 9.1 ESE 20.1 ESE 0.0 59.8
15:15 36.7 41.7 31.1 1018.5 10.7 ESE 23.3 ESE 0.0 58.0
15:20 36.0 40.8 33.8 1018.6 12.1 SE 23.0 S 0.0 57.1
15:25 35.9 40.2 33.6 1018.6 10.0 ESE 20.8 SE 0.0 60.2
15:30 36.0 40.1 33.6 1018.7 7.2 ESE 16.2 E 0.0 57.3
15:35 35.8 39.9 33.6 1018.7 10.6 ESE 22.6 S 0.0 57.8
15:40 35.5 39.3 33.9 1018.7 8.3 ESE 17.0 ESE 0.0 55.7
15:45 35.6 39.2 33.6 1018.8 8.0 E 17.3 E 0.0 55.2
15:50 35.6 39.1 34.0 1018.7 9.1 ESE 19.8 ESE 0.0 56.2
15:55 35.4 38.8 34.4 1018.7 10.4 ESE 26.1 E 0.0 55.6
16:00 35.3 38.4 35.0 1018.7 7.5 ESE 14.8 ESE 0.0 53.0
16:05 35.4 38.2 34.3 1018.7 11.2 ESE 21.2 ESE 0.0 55.8
16:10 35.1 37.7 34.5 1018.6 10.9 ESE 21.9 ESE 0.0 52.8
16:15 35.1 37.3 34.6 1018.7 9.0 ESE 18.0 SSE 0.0 54.4
16:20 35.0 37.0 34.1 1018.7 10.0 SE 17.7 SE 0.0 53.8
16:25 35.0 36.8 34.1 1018.7 7.8 ESE 18.0 SSE 0.0 53.3
16:30 34.9 36.4 33.9 1018.7 8.1 ESE 15.9 SSE 0.0 52.5
16:35 34.9 35.9 33.8 1018.8 8.9 ESE 18.4 SE 0.0 50.3
16:40 34.7 35.5 34.3 1018.9 7.9 ESE 20.5 E 0.0 51.3
16:45 34.6 35.2 34.5 1018.9 9.4 SE 19.1 SSE 0.0 50.0
16:50 34.6 34.7 34.3 1018.9 8.2 ESE 18.0 SE 0.0 50.8
16:55 34.4 34.4 34.5 1018.8 7.9 ESE 18.0 E 0.0 51.1
17:00 34.2 33.8 35.0 1018.7 8.4 ESE 15.5 ESE 0.0 50.9
17:05 34.1 33.4 35.2 1018.7 6.9 ESE 15.2 SE 0.0 51.5
17:10 34.0 32.9 35.7 1018.8 5.5 ESE 12.4 ESE 0.0 50.8
17:15 34.0 32.6 35.8 1019.0 8.0 SE 17.7 SSE 0.0 50.7
17:20 33.8 32.3 36.2 1019.1 7.5 SE 14.1 SE 0.0 49.2
17:25 33.8 32.1 36.1 1019.2 8.4 SE 15.5 SE 0.0 49.8
17:30 33.6 31.9 36.3 1019.1 6.3 SE 12.7 SSE 0.0 49.5
17:35 33.6 31.7 35.8 1019.1 5.7 SE 10.6 SE 0.0 49.7
17:40 33.5 31.5 36.2 1019.2 3.8 SE 7.8 SE 0.0 49.0
17:45 33.3 31.2 37.9 1019.4 3.3 SSW 10.3 SSE 0.0 47.9
17:50 32.9 30.7 41.6 1019.5 7.2 SW 14.8 SSW 0.0 43.3
17:55 32.1 30.1 44.0 1019.5 8.0 SSW 13.4 SSW 0.0 50.7
18:00 31.7 29.6 44.8 1019.4 4.9 SSW 8.8 S 0.0 49.7
18:05 31.3 29.0 46.3 1019.5 4.8 SW 8.1 SSW 0.0 47.7
18:10 30.9 28.4 46.9 1019.7 5.3 SSW 8.1 SSW 0.0 45.1
18:15 30.7 28.0 47.3 1019.6 5.3 S 8.5 SSW 0.0 43.5
18:20 30.6 27.7 47.8 1019.4 6.8 SSW 11.3 SSW 0.0 48.4
18:25 30.5 27.5 48.4 1019.7 3.9 SSW 8.5 SSW 0.0 52.5
18:30 30.4 27.2 48.6 1019.9 0.4 WSW 3.2 WSW 0.0 53.5
18:35 30.1 27.0 49.4 1019.8 0.1 NW 1.8 NW 0.0 53.0
18:40 29.8 26.6 50.3 1020.0 0.0 NNE 0.0 NW 0.0 52.8
18:45 29.5 26.3 51.2 1020.2 0.6 NW 2.8 NW 0.0 55.5
18:50 29.5 26.0 52.0 1020.1 2.9 SE 6.4 SE 0.0 52.7
Màxima 38.2 45.4 96.9 1022.6 12.1 SE 26.1 E 0.0 758.6
Mínima 16.3 14.6 22.5 1018.5
Total 0.0